createdAt,value
2018-08-20T00:01:14.158Z,48.72
2018-08-20T00:06:18.455Z,49.05
2018-08-20T00:11:22.109Z,48.87
2018-08-20T00:16:25.793Z,49.08
2018-08-20T00:21:29.501Z,49.01
2018-08-20T00:26:33.265Z,49.01
2018-08-20T00:31:37.384Z,49.47
2018-08-20T00:36:41.123Z,49.40
2018-08-20T00:41:45.433Z,49.48
2018-08-20T00:46:49.052Z,49.46
2018-08-20T00:51:52.646Z,49.41
2018-08-20T00:56:56.330Z,49.37
2018-08-20T01:02:00.010Z,49.63
2018-08-20T01:07:03.729Z,49.62
2018-08-20T01:12:07.374Z,49.58
2018-08-20T01:17:11.058Z,49.79
2018-08-20T01:22:14.770Z,49.75
2018-08-20T01:27:32.621Z,49.77
2018-08-20T01:32:36.209Z,49.32
2018-08-20T01:37:40.052Z,49.62
2018-08-20T01:42:43.686Z,49.57
2018-08-20T01:47:47.390Z,49.86
2018-08-20T01:52:51.057Z,50.11
2018-08-20T01:57:54.723Z,50.00
2018-08-20T02:03:03.805Z,50.00
2018-08-20T02:08:07.538Z,50.14
2018-08-20T02:13:11.214Z,50.01
2018-08-20T02:18:14.897Z,50.04
2018-08-20T02:23:18.594Z,50.11
2018-08-20T02:28:22.415Z,49.98
2018-08-20T02:33:26.184Z,49.78
2018-08-20T02:38:30.835Z,50.38
2018-08-20T02:43:34.509Z,50.07
2018-08-20T02:48:38.194Z,49.95
2018-08-20T02:53:41.859Z,49.73
2018-08-20T02:58:45.558Z,49.59
2018-08-20T03:03:49.406Z,49.57
2018-08-20T03:08:52.955Z,49.82
2018-08-20T03:13:56.741Z,49.29
2018-08-20T03:19:00.441Z,49.22
2018-08-20T03:24:04.778Z,49.03
2018-08-20T03:29:08.393Z,49.18
2018-08-20T03:34:12.043Z,49.06
2018-08-20T03:39:15.688Z,47.72
2018-08-20T03:44:19.962Z,45.14
2018-08-20T03:49:23.683Z,42.25
2018-08-20T03:54:27.394Z,41.01
2018-08-20T03:59:37.978Z,41.05
2018-08-20T04:04:41.671Z,40.14
2018-08-20T04:09:45.275Z,39.93
2018-08-20T04:14:48.918Z,41.36
2018-08-20T04:19:53.244Z,42.08
2018-08-20T04:24:56.906Z,42.28
2018-08-20T04:30:00.600Z,43.87
2018-08-20T04:35:07.401Z,43.99
2018-08-20T04:40:11.079Z,44.03
2018-08-20T04:45:14.782Z,43.84
2018-08-20T04:50:18.597Z,43.73
2018-08-20T04:55:22.080Z,44.90
2018-08-20T05:00:25.861Z,45.60
2018-08-20T05:05:29.501Z,45.54
2018-08-20T05:10:33.162Z,46.39
2018-08-20T05:15:36.845Z,46.69
2018-08-20T05:20:40.608Z,46.05
2018-08-20T05:25:44.325Z,46.82
2018-08-20T05:30:48.060Z,46.67
2018-08-20T05:35:51.703Z,46.24
2018-08-20T05:40:55.442Z,45.95
2018-08-20T05:45:59.028Z,45.81
2018-08-20T05:51:02.738Z,45.94
2018-08-20T05:56:06.663Z,45.94
2018-08-20T06:01:10.393Z,45.97
2018-08-20T06:06:14.115Z,45.58
2018-08-20T06:11:17.745Z,46.10
2018-08-20T06:16:22.399Z,44.69
2018-08-20T06:21:26.102Z,44.86
2018-08-20T06:26:29.931Z,44.88
2018-08-20T06:31:33.687Z,44.82
2018-08-20T06:36:37.383Z,45.20
2018-08-20T06:41:41.146Z,44.88
2018-08-20T06:46:44.838Z,45.17
2018-08-20T06:51:48.574Z,45.24
2018-08-20T06:56:52.255Z,45.38
2018-08-20T07:01:55.891Z,45.84
2018-08-20T07:06:59.644Z,45.71
2018-08-20T07:12:03.381Z,45.77
2018-08-20T07:17:07.150Z,45.07
2018-08-20T07:22:10.814Z,45.85
2018-08-20T07:27:14.507Z,45.77
2018-08-20T07:32:18.370Z,46.72
2018-08-20T07:37:22.936Z,47.32
2018-08-20T07:42:26.582Z,47.57
2018-08-20T07:47:30.264Z,47.76
2018-08-20T07:52:33.904Z,47.30
2018-08-20T07:57:37.586Z,47.30
2018-08-20T08:02:41.319Z,47.79
2018-08-20T08:07:45.141Z,47.93
2018-08-20T08:12:48.804Z,47.91
2018-08-20T08:17:52.538Z,48.13
2018-08-20T08:22:56.217Z,48.21
2018-08-20T08:27:59.894Z,47.69
2018-08-20T08:33:04.218Z,48.01
2018-08-20T08:38:08.047Z,47.65
2018-08-20T08:43:11.675Z,47.39
2018-08-20T08:48:15.406Z,46.88
2018-08-20T08:53:19.149Z,47.27
2018-08-20T08:58:22.772Z,46.84
2018-08-20T09:03:28.486Z,46.58
2018-08-20T09:08:32.352Z,46.50
2018-08-20T09:13:35.989Z,47.08
2018-08-20T09:18:39.738Z,46.64
2018-08-20T09:23:43.548Z,46.45
2018-08-20T09:28:47.289Z,47.01
2018-08-20T09:33:50.975Z,46.70
2018-08-20T09:38:54.646Z,46.70
2018-08-20T09:43:58.383Z,46.45
2018-08-20T09:49:02.878Z,46.26
2018-08-20T09:54:06.633Z,46.81
2018-08-20T09:59:10.335Z,46.23
2018-08-20T10:04:13.985Z,46.62
2018-08-20T10:09:17.747Z,46.36
2018-08-20T10:14:21.554Z,45.79
2018-08-20T10:19:25.196Z,45.51
2018-08-20T10:24:28.897Z,45.81
2018-08-20T10:29:32.559Z,46.44
2018-08-20T10:34:36.170Z,45.78
2018-08-20T10:39:39.853Z,45.81
2018-08-20T10:44:49.034Z,45.81
2018-08-20T10:49:52.706Z,45.76
2018-08-20T10:54:56.593Z,45.95
2018-08-20T11:00:00.987Z,46.38
2018-08-20T11:05:05.405Z,46.71
2018-08-20T11:10:09.105Z,46.15
2018-08-20T11:15:13.153Z,46.11
2018-08-20T11:20:17.562Z,46.17
2018-08-20T11:25:21.294Z,46.32
2018-08-20T11:30:24.997Z,46.01
2018-08-20T11:35:28.668Z,45.58
2018-08-20T11:40:32.341Z,45.97
2018-08-20T11:45:36.067Z,45.68
2018-08-20T11:50:39.748Z,45.87
2018-08-20T11:55:43.433Z,45.52
2018-08-20T12:00:47.139Z,45.46
2018-08-20T12:05:50.858Z,45.37
2018-08-20T12:16:18.643Z,45.87
2018-08-20T12:21:22.342Z,45.72
2018-08-20T12:26:26.001Z,45.82
2018-08-20T12:31:29.822Z,45.78
2018-08-20T12:36:33.573Z,45.79
2018-08-20T12:41:37.262Z,45.45
2018-08-20T12:46:40.964Z,46.06
2018-08-20T12:51:44.658Z,45.91
2018-08-20T12:56:48.294Z,45.86
2018-08-20T13:01:52.566Z,46.10
2018-08-20T13:06:56.693Z,46.54
2018-08-20T13:12:00.432Z,46.25
2018-08-20T13:17:04.118Z,46.62
2018-08-20T13:22:08.926Z,46.25
2018-08-20T13:27:14.989Z,46.68
2018-08-20T13:32:18.863Z,46.88
2018-08-20T13:37:24.914Z,46.82
2018-08-20T13:42:28.707Z,46.92
2018-08-20T13:47:32.542Z,46.68
2018-08-20T13:52:36.271Z,46.80
2018-08-20T13:57:48.527Z,47.00
2018-08-20T14:02:52.466Z,47.19
2018-08-20T14:07:56.192Z,47.04
2018-08-20T14:13:00.324Z,47.08
2018-08-20T14:18:04.161Z,47.00
2018-08-20T14:23:09.805Z,47.25
2018-08-20T14:28:15.425Z,47.38
2018-08-20T14:33:19.499Z,47.35
2018-08-20T14:38:23.772Z,47.41
2018-08-20T14:43:28.301Z,47.01
2018-08-20T14:48:32.599Z,47.32
2018-08-20T14:53:36.651Z,47.32
2018-08-20T14:58:41.547Z,47.21
2018-08-20T15:03:45.867Z,47.20
2018-08-20T15:08:55.053Z,47.19
2018-08-20T15:13:58.964Z,47.26
2018-08-20T15:19:03.878Z,47.21
2018-08-20T15:24:07.642Z,46.98
2018-08-20T15:29:11.464Z,47.46
2018-08-20T15:34:15.321Z,47.47
2018-08-20T15:39:19.422Z,47.16
2018-08-20T15:44:23.129Z,47.29
2018-08-20T15:49:26.934Z,47.26
2018-08-20T15:54:30.649Z,47.29
2018-08-20T15:59:34.369Z,47.24
2018-08-20T16:04:38.157Z,47.27
2018-08-20T16:09:41.917Z,47.36
2018-08-20T16:14:45.614Z,48.18
2018-08-20T16:19:49.277Z,48.70
2018-08-20T16:24:52.942Z,48.56
2018-08-20T16:29:56.984Z,48.79
2018-08-20T16:40:09.621Z,50.15
2018-08-20T16:45:22.185Z,50.35
2018-08-20T16:50:30.956Z,50.33
2018-08-20T16:55:46.495Z,49.90
2018-08-20T17:00:54.296Z,49.47
2018-08-20T17:05:59.649Z,49.28
2018-08-20T17:11:08.541Z,50.19
2018-08-20T17:16:15.156Z,50.16
2018-08-20T17:21:19.133Z,49.71
2018-08-20T17:26:22.798Z,49.92
2018-08-20T17:31:26.582Z,49.04
2018-08-20T17:36:30.393Z,49.31
2018-08-20T17:41:34.160Z,49.15
2018-08-20T17:46:38.114Z,47.46
2018-08-20T17:51:41.914Z,48.75
2018-08-20T17:56:52.199Z,40.70
2018-08-20T18:01:55.894Z,39.77
2018-08-20T18:06:59.656Z,39.96
2018-08-20T18:12:06.958Z,40.28
2018-08-20T18:17:10.901Z,39.98
2018-08-20T18:22:14.627Z,40.34
2018-08-20T18:27:18.362Z,41.20
2018-08-20T18:32:21.992Z,40.98
2018-08-20T18:37:25.635Z,41.15
2018-08-20T18:42:34.673Z,41.11
2018-08-20T18:47:38.348Z,41.22
2018-08-20T18:52:42.266Z,41.61
2018-08-20T18:57:45.987Z,42.43
2018-08-20T19:02:52.370Z,41.96
2018-08-20T19:07:56.888Z,41.97
2018-08-20T19:13:01.718Z,42.01
2018-08-20T19:18:06.588Z,42.94
2018-08-20T19:23:10.425Z,42.55
2018-08-20T19:28:15.531Z,43.42
2018-08-20T19:33:26.137Z,42.80
2018-08-20T19:38:30.009Z,42.61
2018-08-20T19:43:38.966Z,42.95
2018-08-20T19:48:42.708Z,43.08
2018-08-20T19:53:46.508Z,43.38
2018-08-20T19:58:50.231Z,43.56
2018-08-20T20:03:54.570Z,43.65
2018-08-20T20:08:58.576Z,43.19
2018-08-20T20:14:03.632Z,43.33
2018-08-20T20:19:07.323Z,42.96
2018-08-20T20:24:12.608Z,43.07
2018-08-20T20:29:16.533Z,43.24
2018-08-20T20:34:20.873Z,42.78
2018-08-20T20:39:24.631Z,44.17
2018-08-20T20:44:28.443Z,43.91
2018-08-20T20:49:32.101Z,44.39
2018-08-20T20:54:35.907Z,44.76
2018-08-20T20:59:39.948Z,44.86
2018-08-20T21:04:43.478Z,44.42
2018-08-20T21:09:48.134Z,44.73
2018-08-20T21:14:51.893Z,44.70
2018-08-20T21:19:55.564Z,44.72
2018-08-20T21:24:59.356Z,45.33
2018-08-20T21:30:05.058Z,45.08
2018-08-20T21:35:08.831Z,45.12
2018-08-20T21:40:16.580Z,44.63
2018-08-20T21:45:20.230Z,45.06
2018-08-20T21:50:23.941Z,45.61
2018-08-20T21:55:27.629Z,45.68
2018-08-20T22:00:31.353Z,45.95
2018-08-20T22:05:35.260Z,45.66
2018-08-20T22:10:39.357Z,46.00
2018-08-20T22:15:43.393Z,45.58
2018-08-20T22:20:47.230Z,45.95
2018-08-20T22:25:55.184Z,45.65
2018-08-20T22:30:58.911Z,46.20
2018-08-20T22:36:02.631Z,46.15
2018-08-20T22:41:06.346Z,46.34
2018-08-20T22:46:10.506Z,46.14
2018-08-20T22:51:17.509Z,46.57
2018-08-20T22:56:23.562Z,46.44
2018-08-20T23:01:27.384Z,46.52
2018-08-20T23:06:31.354Z,46.26
2018-08-20T23:11:43.057Z,46.57
2018-08-20T23:16:50.401Z,46.50
2018-08-20T23:21:54.308Z,47.16
2018-08-20T23:26:57.974Z,46.94
2018-08-20T23:32:01.652Z,47.12
2018-08-20T23:37:05.403Z,46.98
2018-08-20T23:42:09.353Z,47.34
2018-08-20T23:47:13.081Z,47.44
2018-08-20T23:52:16.809Z,47.25
2018-08-20T23:57:20.441Z,47.51
